KAAF/AAF METAR and TAF weather

Enter ICAO airport designator
Station Type Date Time Source
KAAF METAR 2022/01/26 12:53 UTC NOAA

KAAF 261253Z AUTO 03010KT 8SM BKN046 OVC090 10/09 A3011 RMK AO2 RAE07B34E47 SLP196 P0000 T01000089


Station Type Date Time Source
KAAF Decoded METAR 2022/01/26 12:53 UTC NOAA

APALACHICOLA MUNICIPAL AIRPORT, FL, United States (KAAF) 29-44N 085-01W 5M
Jan 26, 2022 - 07:53 AM EST / 2022.01.26 1253 UTC
Wind: from the NNE (030 degrees) at 12 MPH (10 KT):0
Visibility: 8 mile(s):0
Sky conditions: overcast
Precipitation last hour: A trace
Temperature: 50.0 F (10.0 C)
Dew Point: 48.0 F (8.9 C)
Relative Humidity: 92%
Pressure (altimeter): 30.11 in. Hg (1019 hPa)
ob: KAAF 261253Z AUTO 03010KT 8SM BKN046 OVC090 10/09 A3011 RMK AO2 RAE07B34E47 SLP196 P0000 T01000089
cycle: 13

Station Type Date Time Source
KAAF TAF UTC NOAA

Error!

Example: see airport list